Impacts METAR Board
IDs:

KPIT - Pittsburgh Intl, PA, US

Updated at: 1800 UTC 02 Oct 2022
Potential Impact None Slight Moderate High
Time 02/06Z 02/07Z 02/08Z 02/09Z 02/10Z 02/11Z 02/12Z 02/13Z 02/14Z 02/15Z 02/16Z 02/17Z 02/18Z
Temp53 52 51 52 51 52 53 53 54 54 57 58 61
Dewpt47 47 48 48 48 49 49 49 50 50 50 49 48
Altim30.01 30.01 30.01 30.02 30.04 30.06 30.08 30.10 30.12 30.13 30.14 30.14 30.14
VIS10 10 8 10 7 8 10 6 10 10 10 10 10
CIG25 25 29 26 28 29 27 29 27 18 28 25 60
CoverOVCOVCOVCOVCOVCOVCOVCOVCOVCOVCOVCOVCBKN
FltCatMVFRMVFRMVFRMVFRMVFRMVFRMVFRMVFRMVFRMVFRMVFRMVFRVFR
WX-----RA---RA-RA---RA BR-DZ-RA------
WDir202010202036020102030304030
WSpd12 11 9 10 12 10 10 9 9 7 6 9 13
WGst-- -- -- -- -- -- -- -- -- -- -- -- 17
Raw hourly METARs
KPIT 020551Z 02012KT 10SM SCT015 BKN025 OVC037 12/08 A3001 RMK AO2 SLP172 60001 T01170083 10122 20117 51002
KPIT 020651Z 02011KT 10SM FEW014 OVC025 11/08 A3001 RMK AO2 SLP173 T01110083
KPIT 020751Z 01009KT 8SM -RA FEW009 BKN029 OVC045 11/09 A3001 RMK AO2 RAB12 SLP173 P0002 T01060089
KPIT 020851Z 02010KT 10SM FEW009 OVC026 11/09 A3002 RMK AO2 RAE13 SLP176 P0000 60002 T01110089 53004
KPIT 020951Z 02012KT 7SM -RA BKN028 OVC042 11/09 A3004 RMK AO2 RAB28 SLP181 P0000 T01060089
KPIT 021051Z 36010KT 8SM -RA FEW018 OVC029 11/09 A3006 RMK AO2 DZB14E23 SLP188 P0002 T01110094
KPIT 021151Z 02010KT 10SM FEW019 OVC027 12/09 A3008 RMK AO2 RAE31 SLP193 P0000 60004 70049 T01170094 10117 20106 51017
KPIT 021251Z 01009KT 6SM -RA BR FEW019 OVC029 12/09 A3010 RMK AO2 RAB48 SLP200 P0000 T01170094
KPIT 021351Z 02009KT 10SM -DZ FEW018 BKN027 OVC038 12/10 A3012 RMK AO2 RAE36DZB36 SLP207 P0001 T01220100
KPIT 021451Z 03007KT 10SM -RA BKN018 OVC026 12/10 A3013 RMK AO2 DZE17RAB17E36B48 SLP212 P0000 60001 T01220100 51019
KPIT 021551Z 03006KT 10SM SCT019 BKN028 OVC050 14/10 A3014 RMK AO2 RAE40 SLP213 P0000 T01390100
KPIT 021651Z 04009KT 10SM BKN025 OVC050 14/09 A3014 RMK AO2 RAB32E41 SLP215 P0000 T01440094
KPIT 021751Z 03013G17KT 10SM SCT029 BKN060 BKN250 16/09 A3014 RMK AO2 SLP213 60001 T01610089 10161 20117 50002



Page loaded:  18:46 UTC  |   11:46 AM Pacific  |   12:46 PM Mountain  |   01:46 PM Central  |   02:46 PM Eastern

 

ADVISORIES

FORECASTS

FORECASTS

OBSERVATIONS

USER TOOLS

ABOUT US